sensor_id;sensor_type;location;lat;lon;timestamp;pressure;altitude;pressure_sealevel;temperature;humidity
62617;BME280;62539;51.190;6.808;2022-08-11T00:01:16;101890.25;;;27.04;37.39
62617;BME280;62539;51.190;6.808;2022-08-11T00:03:55;101890.47;;;26.99;37.50
62617;BME280;62539;51.190;6.808;2022-08-11T00:06:28;101886.97;;;26.98;37.33
62617;BME280;62539;51.190;6.808;2022-08-11T00:08:57;101891.44;;;26.98;37.82
62617;BME280;62539;51.190;6.808;2022-08-11T00:11:33;101888.16;;;26.93;38.08
62617;BME280;62539;51.190;6.808;2022-08-11T00:14:02;101889.25;;;26.89;37.68
62617;BME280;62539;51.190;6.808;2022-08-11T00:16:36;101889.34;;;26.87;38.21
62617;BME280;62539;51.190;6.808;2022-08-11T00:19:03;101888.63;;;26.83;38.00
62617;BME280;62539;51.190;6.808;2022-08-11T00:21:29;101886.97;;;26.81;38.02
62617;BME280;62539;51.190;6.808;2022-08-11T00:24:03;101888.06;;;26.77;38.27
62617;BME280;62539;51.190;6.808;2022-08-11T00:26:30;101884.78;;;26.71;38.10
62617;BME280;62539;51.190;6.808;2022-08-11T00:29:07;101885.78;;;26.69;38.15
62617;BME280;62539;51.190;6.808;2022-08-11T00:31:36;101881.34;;;26.69;38.30
62617;BME280;62539;51.190;6.808;2022-08-11T00:34:09;101884.94;;;26.68;38.23
62617;BME280;62539;51.190;6.808;2022-08-11T00:36:42;101882.28;;;26.68;38.46
62617;BME280;62539;51.190;6.808;2022-08-11T00:39:15;101878.91;;;26.65;38.68
62617;BME280;62539;51.190;6.808;2022-08-11T00:44:32;101886.22;;;26.61;39.50
62617;BME280;62539;51.190;6.808;2022-08-11T00:47:23;101884.66;;;26.57;39.39
62617;BME280;62539;51.190;6.808;2022-08-11T00:59:21;101881.19;;;26.37;40.44
62617;BME280;62539;51.190;6.808;2022-08-11T01:02:16;101879.47;;;26.36;40.09
62617;BME280;62539;51.190;6.808;2022-08-11T01:08:56;101879.94;;;26.27;40.42
62617;BME280;62539;51.190;6.808;2022-08-11T01:12:18;101879.25;;;26.23;40.95
62617;BME280;62539;51.190;6.808;2022-08-11T01:45:58;101870.44;;;25.85;41.63
62617;BME280;62539;51.190;6.808;2022-08-11T01:48:41;101868.09;;;25.78;41.92
62617;BME280;62539;51.190;6.808;2022-08-11T01:51:23;101868.25;;;25.75;42.57
62617;BME280;62539;51.190;6.808;2022-08-11T01:54:14;101875.50;;;25.72;42.76
62617;BME280;62539;51.190;6.808;2022-08-11T01:59:35;101881.03;;;25.67;42.76
62617;BME280;62539;51.190;6.808;2022-08-11T02:02:30;101872.22;;;25.66;42.43
62617;BME280;62539;51.190;6.808;2022-08-11T02:11:28;101884.13;;;25.58;42.74
62617;BME280;62539;51.190;6.808;2022-08-11T02:14:02;101875.38;;;25.56;42.48
62617;BME280;62539;51.190;6.808;2022-08-11T02:23:12;101879.25;;;25.48;41.99
62617;BME280;62539;51.190;6.808;2022-08-11T02:26:21;101875.75;;;25.48;42.34
62617;BME280;62539;51.190;6.808;2022-08-11T02:31:57;101880.50;;;25.39;42.96
62617;BME280;62539;51.190;6.808;2022-08-11T02:35:15;101877.25;;;25.33;42.87
62617;BME280;62539;51.190;6.808;2022-08-11T02:38:17;101873.69;;;25.34;42.92
62617;BME280;62539;51.190;6.808;2022-08-11T02:41:00;101879.13;;;25.31;42.82
62617;BME280;62539;51.190;6.808;2022-08-11T02:44:26;101880.44;;;25.22;43.24
62617;BME280;62539;51.190;6.808;2022-08-11T02:47:08;101880.34;;;25.23;43.24
62617;BME280;62539;51.190;6.808;2022-08-11T02:49:59;101876.88;;;25.21;43.51
62617;BME280;62539;51.190;6.808;2022-08-11T02:56:01;101885.41;;;25.09;43.36
62617;BME280;62539;51.190;6.808;2022-08-11T02:58:54;101880.38;;;25.03;43.29
62617;BME280;62539;51.190;6.808;2022-08-11T03:01:54;101878.50;;;25.05;43.40
62617;BME280;62539;51.190;6.808;2022-08-11T03:04:29;101884.25;;;24.95;43.69
62617;BME280;62539;51.190;6.808;2022-08-11T03:10:40;101883.25;;;24.98;43.58
62617;BME280;62539;51.190;6.808;2022-08-11T03:16:17;101878.22;;;24.92;43.76
62617;BME280;62539;51.190;6.808;2022-08-11T03:19:21;101876.50;;;24.91;43.70
62617;BME280;62539;51.190;6.808;2022-08-11T03:28:25;101876.69;;;24.86;43.90
62617;BME280;62539;51.190;6.808;2022-08-11T03:34:08;101879.47;;;24.83;44.16
62617;BME280;62539;51.190;6.808;2022-08-11T03:46:11;101873.72;;;24.72;44.87
62617;BME280;62539;51.190;6.808;2022-08-11T03:48:57;101873.94;;;24.67;44.72
62617;BME280;62539;51.190;6.808;2022-08-11T03:51:51;101872.22;;;24.66;44.86
62617;BME280;62539;51.190;6.808;2022-08-11T03:54:44;101877.66;;;24.63;45.18
62617;BME280;62539;51.190;6.808;2022-08-11T04:00:19;101873.47;;;24.57;45.31
62617;BME280;62539;51.190;6.808;2022-08-11T04:03:26;101864.72;;;24.55;45.47
62617;BME280;62539;51.190;6.808;2022-08-11T04:35:03;101877.81;;;23.93;47.04
62617;BME280;62539;51.190;6.808;2022-08-11T04:38:24;101875.88;;;24.20;46.42
62617;BME280;62539;51.190;6.808;2022-08-11T04:47:12;101874.41;;;24.13;46.48
62617;BME280;62539;51.190;6.808;2022-08-11T04:50:51;101874.84;;;24.02;47.25
62617;BME280;62539;51.190;6.808;2022-08-11T04:53:44;101878.28;;;24.04;46.76
62617;BME280;62539;51.190;6.808;2022-08-11T04:56:43;101882.28;;;24.15;46.81
62617;BME280;62539;51.190;6.808;2022-08-11T05:00:00;101880.44;;;24.17;46.97
62617;BME280;62539;51.190;6.808;2022-08-11T05:10:01;101879.63;;;24.15;47.31
62617;BME280;62539;51.190;6.808;2022-08-11T05:13:02;101885.56;;;24.21;47.63
62617;BME280;62539;51.190;6.808;2022-08-11T05:15:56;101885.50;;;24.23;47.20
62617;BME280;62539;51.190;6.808;2022-08-11T05:18:47;101886.50;;;24.20;47.49
62617;BME280;62539;51.190;6.808;2022-08-11T05:21:39;101887.28;;;24.22;47.56
62617;BME280;62539;51.190;6.808;2022-08-11T05:24:32;101896.09;;;24.23;47.19
62617;BME280;62539;51.190;6.808;2022-08-11T05:27:35;101894.38;;;24.22;47.78
62617;BME280;62539;51.190;6.808;2022-08-11T05:30:28;101903.06;;;24.26;47.60
62617;BME280;62539;51.190;6.808;2022-08-11T05:33:20;101906.69;;;24.23;47.82
62617;BME280;62539;51.190;6.808;2022-08-11T05:36:21;101907.63;;;24.22;48.31
62617;BME280;62539;51.190;6.808;2022-08-11T05:38:58;101910.16;;;24.25;48.26
62617;BME280;62539;51.190;6.808;2022-08-11T05:41:47;101914.53;;;24.26;48.25
62617;BME280;62539;51.190;6.808;2022-08-11T05:44:34;101906.53;;;24.28;48.57
62617;BME280;62539;51.190;6.808;2022-08-11T05:47:23;101910.28;;;24.22;48.46
62617;BME280;62539;51.190;6.808;2022-08-11T05:50:11;101905.41;;;24.33;48.77
62617;BME280;62539;51.190;6.808;2022-08-11T05:52:57;101906.06;;;24.39;48.43
62617;BME280;62539;51.190;6.808;2022-08-11T05:55:44;101914.69;;;24.44;48.25
62617;BME280;62539;51.190;6.808;2022-08-11T05:58:34;101911.78;;;24.50;47.73
62617;BME280;62539;51.190;6.808;2022-08-11T06:01:03;101922.22;;;24.55;47.83
62617;BME280;62539;51.190;6.808;2022-08-11T06:03:32;101914.94;;;24.60;47.64
62617;BME280;62539;51.190;6.808;2022-08-11T06:06:21;101906.75;;;24.64;47.35
62617;BME280;62539;51.190;6.808;2022-08-11T06:08:56;101916.28;;;24.70;47.22
62617;BME280;62539;51.190;6.808;2022-08-11T06:11:24;101911.72;;;24.74;47.33
62617;BME280;62539;51.190;6.808;2022-08-11T06:13:51;101915.97;;;24.78;47.20
62617;BME280;62539;51.190;6.808;2022-08-11T06:16:22;101902.56;;;24.81;47.09
62617;BME280;62539;51.190;6.808;2022-08-11T06:18:52;101912.06;;;24.87;46.86
62617;BME280;62539;51.190;6.808;2022-08-11T06:21:19;101911.06;;;24.89;46.91
62617;BME280;62539;51.190;6.808;2022-08-11T06:23:46;101915.28;;;24.93;46.58
62617;BME280;62539;51.190;6.808;2022-08-11T06:26:14;101910.78;;;24.95;46.71
62617;BME280;62539;51.190;6.808;2022-08-11T06:28:43;101914.19;;;24.99;46.42
62617;BME280;62539;51.190;6.808;2022-08-11T06:31:15;101914.88;;;25.03;46.20
62617;BME280;62539;51.190;6.808;2022-08-11T06:41:43;101909.13;;;25.14;46.28
62617;BME280;62539;51.190;6.808;2022-08-11T06:46:49;101909.78;;;25.19;46.08
62617;BME280;62539;51.190;6.808;2022-08-11T06:49:20;101907.81;;;25.22;45.79
62617;BME280;62539;51.190;6.808;2022-08-11T06:52:15;101908.63;;;25.24;45.86
62617;BME280;62539;51.190;6.808;2022-08-11T06:54:50;101910.28;;;25.27;45.96
62617;BME280;62539;51.190;6.808;2022-08-11T06:57:21;101903.97;;;25.30;45.92
62617;BME280;62539;51.190;6.808;2022-08-11T07:00:06;101906.56;;;25.31;45.85
62617;BME280;62539;51.190;6.808;2022-08-11T07:02:56;101910.84;;;25.34;45.44
62617;BME280;62539;51.190;6.808;2022-08-11T07:08:19;101912.44;;;25.38;45.71
62617;BME280;62539;51.190;6.808;2022-08-11T07:14:33;101919.34;;;25.42;45.26
62617;BME280;62539;51.190;6.808;2022-08-11T07:17:23;101914.81;;;25.44;45.66
62617;BME280;62539;51.190;6.808;2022-08-11T07:19:53;101920.34;;;25.39;45.31
62617;BME280;62539;51.190;6.808;2022-08-11T07:22:41;101924.53;;;25.45;45.23
62617;BME280;62539;51.190;6.808;2022-08-11T07:25:33;101905.00;;;25.46;45.57
62617;BME280;62539;51.190;6.808;2022-08-11T07:28:26;101908.47;;;25.48;45.57
62617;BME280;62539;51.190;6.808;2022-08-11T07:31:31;101914.66;;;25.49;45.29
62617;BME280;62539;51.190;6.808;2022-08-11T07:34:19;101902.06;;;25.52;45.43
62617;BME280;62539;51.190;6.808;2022-08-11T07:36:54;101902.88;;;25.54;45.53
62617;BME280;62539;51.190;6.808;2022-08-11T07:39:24;101904.59;;;25.56;45.14
62617;BME280;62539;51.190;6.808;2022-08-11T07:41:54;101903.59;;;25.58;45.13
62617;BME280;62539;51.190;6.808;2022-08-11T07:44:23;101910.56;;;25.61;45.21
62617;BME280;62539;51.190;6.808;2022-08-11T07:46:53;101908.69;;;25.63;45.21
62617;BME280;62539;51.190;6.808;2022-08-11T07:49:39;101911.19;;;25.66;45.19
62617;BME280;62539;51.190;6.808;2022-08-11T07:52:29;101900.56;;;25.66;44.96
62617;BME280;62539;51.190;6.808;2022-08-11T07:55:02;101906.66;;;25.68;45.04
62617;BME280;62539;51.190;6.808;2022-08-11T07:57:30;101900.41;;;25.69;45.24
62617;BME280;62539;51.190;6.808;2022-08-11T08:00:16;101903.88;;;25.71;45.10
62617;BME280;62539;51.190;6.808;2022-08-11T08:03:03;101900.28;;;25.72;45.05
62617;BME280;62539;51.190;6.808;2022-08-11T08:05:49;101898.41;;;25.74;45.16
62617;BME280;62539;51.190;6.808;2022-08-11T08:08:34;101895.69;;;25.76;44.80
62617;BME280;62539;51.190;6.808;2022-08-11T08:11:20;101891.22;;;25.76;44.84
62617;BME280;62539;51.190;6.808;2022-08-11T08:14:09;101899.13;;;25.78;44.70
62617;BME280;62539;51.190;6.808;2022-08-11T08:16:55;101892.81;;;25.80;45.05
62617;BME280;62539;51.190;6.808;2022-08-11T08:19:47;101895.47;;;25.80;45.06
62617;BME280;62539;51.190;6.808;2022-08-11T08:22:17;101898.91;;;25.82;44.91
62617;BME280;62539;51.190;6.808;2022-08-11T08:24:46;101902.34;;;25.85;44.53
62617;BME280;62539;51.190;6.808;2022-08-11T08:27:13;101905.88;;;25.85;44.55
62617;BME280;62539;51.190;6.808;2022-08-11T08:29:40;101907.59;;;25.86;44.81
62617;BME280;62539;51.190;6.808;2022-08-11T08:32:27;101904.00;;;25.87;44.66
62617;BME280;62539;51.190;6.808;2022-08-11T08:34:54;101903.00;;;25.90;44.66
62617;BME280;62539;51.190;6.808;2022-08-11T08:37:23;101901.13;;;25.92;44.81
62617;BME280;62539;51.190;6.808;2022-08-11T08:39:53;101902.84;;;25.93;44.48
62617;BME280;62539;51.190;6.808;2022-08-11T08:42:28;101903.72;;;25.93;44.90
62617;BME280;62539;51.190;6.808;2022-08-11T08:45:05;101904.50;;;25.95;44.82
62617;BME280;62539;51.190;6.808;2022-08-11T08:47:35;101900.91;;;25.96;44.79
62617;BME280;62539;51.190;6.808;2022-08-11T08:50:22;101905.28;;;25.97;44.48
62617;BME280;62539;51.190;6.808;2022-08-11T08:53:11;101906.94;;;26.00;44.50
62617;BME280;62539;51.190;6.808;2022-08-11T08:55:39;101907.72;;;26.02;44.48
62617;BME280;62539;51.190;6.808;2022-08-11T08:58:07;101909.44;;;26.03;44.46
62617;BME280;62539;51.190;6.808;2022-08-11T09:00:43;101906.78;;;26.03;44.41
62617;BME280;62539;51.190;6.808;2022-08-11T09:03:11;101910.22;;;26.05;44.49
62617;BME280;62539;51.190;6.808;2022-08-11T09:05:39;101900.38;;;26.07;44.67
62617;BME280;62539;51.190;6.808;2022-08-11T09:08:05;101908.28;;;26.09;44.45
62617;BME280;62539;51.190;6.808;2022-08-11T09:10:32;101910.00;;;26.10;44.26
62617;BME280;62539;51.190;6.808;2022-08-11T09:12:59;101913.47;;;26.12;44.33
62617;BME280;62539;51.190;6.808;2022-08-11T09:15:28;101909.88;;;26.13;44.51
62617;BME280;62539;51.190;6.808;2022-08-11T09:17:56;101904.50;;;26.15;44.25
62617;BME280;62539;51.190;6.808;2022-08-11T09:20:34;101901.78;;;26.16;44.27
62617;BME280;62539;51.190;6.808;2022-08-11T09:23:08;101904.28;;;26.19;44.36
62617;BME280;62539;51.190;6.808;2022-08-11T09:25:58;101905.91;;;26.22;43.93
62617;BME280;62539;51.190;6.808;2022-08-11T09:28:44;101901.38;;;26.24;44.05
62617;BME280;62539;51.190;6.808;2022-08-11T09:31:13;101897.56;;;26.30;43.87
62617;BME280;62539;51.190;6.808;2022-08-11T09:33:42;101897.31;;;26.34;43.79
62617;BME280;62539;51.190;6.808;2022-08-11T09:36:09;101893.50;;;26.40;43.66
62617;BME280;62539;51.190;6.808;2022-08-11T09:38:56;101894.81;;;26.49;43.75
62617;BME280;62539;51.190;6.808;2022-08-11T09:41:43;101897.00;;;26.58;43.25
62617;BME280;62539;51.190;6.808;2022-08-11T09:44:09;101893.88;;;26.67;43.31
62617;BME280;62539;51.190;6.808;2022-08-11T09:46:55;101888.06;;;26.77;42.80
62617;BME280;62539;51.190;6.808;2022-08-11T09:49:25;101890.34;;;26.84;43.01
62617;BME280;62539;51.190;6.808;2022-08-11T09:51:53;101890.91;;;26.91;42.57
62617;BME280;62539;51.190;6.808;2022-08-11T09:54:22;101886.09;;;26.98;42.48
62617;BME280;62539;51.190;6.808;2022-08-11T09:56:51;101887.59;;;27.04;42.57
62617;BME280;62539;51.190;6.808;2022-08-11T09:59:37;101888.97;;;27.11;42.40
62617;BME280;62539;51.190;6.808;2022-08-11T10:02:05;101875.34;;;27.17;42.36
62617;BME280;62539;51.190;6.808;2022-08-11T10:04:40;101875.00;;;27.23;41.87
62617;BME280;62539;51.190;6.808;2022-08-11T10:07:13;101880.00;;;27.29;41.95
62617;BME280;62539;51.190;6.808;2022-08-11T10:09:52;101885.16;;;27.33;41.84
62617;BME280;62539;51.190;6.808;2022-08-11T10:12:25;101871.56;;;27.37;41.83
62617;BME280;62539;51.190;6.808;2022-08-11T10:15:03;101869.50;;;27.42;41.74
62617;BME280;62539;51.190;6.808;2022-08-11T10:17:54;101875.53;;;27.46;41.96
62617;BME280;62539;51.190;6.808;2022-08-11T10:20:44;101863.88;;;27.49;41.67
62617;BME280;62539;51.190;6.808;2022-08-11T10:23:14;101866.47;;;27.50;41.61
62617;BME280;62539;51.190;6.808;2022-08-11T10:25:59;101868.03;;;27.54;41.55
62617;BME280;62539;51.190;6.808;2022-08-11T10:28:44;101861.63;;;27.57;41.60
62617;BME280;62539;51.190;6.808;2022-08-11T10:31:11;101847.38;;;27.58;41.45
62617;BME280;62539;51.190;6.808;2022-08-11T10:33:56;101848.06;;;27.62;41.44
62617;BME280;62539;51.190;6.808;2022-08-11T10:36:27;101848.91;;;27.62;41.32
62617;BME280;62539;51.190;6.808;2022-08-11T10:39:17;101843.41;;;27.65;41.44
62617;BME280;62539;51.190;6.808;2022-08-11T10:41:45;101837.91;;;27.68;41.68
62617;BME280;62539;51.190;6.808;2022-08-11T10:44:36;101843.94;;;27.72;41.63
62617;BME280;62539;51.190;6.808;2022-08-11T10:47:04;101835.00;;;27.73;41.93
62617;BME280;62539;51.190;6.808;2022-08-11T10:49:50;101829.47;;;27.76;41.57
62617;BME280;62539;51.190;6.808;2022-08-11T10:52:38;101820.53;;;27.77;41.63
62617;BME280;62539;51.190;6.808;2022-08-11T10:55:24;101827.59;;;27.78;41.82
62617;BME280;62539;51.190;6.808;2022-08-11T10:58:10;101822.06;;;27.81;42.18
62617;BME280;62539;51.190;6.808;2022-08-11T11:00:55;101829.13;;;27.82;41.89
62617;BME280;62539;51.190;6.808;2022-08-11T11:03:25;101823.78;;;27.82;42.38
62617;BME280;62539;51.190;6.808;2022-08-11T11:05:59;101802.47;;;27.82;42.37
62617;BME280;62539;51.190;6.808;2022-08-11T11:08:38;101798.84;;;27.83;42.41
62617;BME280;62539;51.190;6.808;2022-08-11T11:11:20;101802.28;;;27.85;42.21
62617;BME280;62539;51.190;6.808;2022-08-11T11:14:08;101811.22;;;27.84;42.39
62617;BME280;62539;51.190;6.808;2022-08-11T11:16:55;101800.22;;;27.91;42.54
62617;BME280;62539;51.190;6.808;2022-08-11T11:19:36;101793.94;;;27.92;42.10
62617;BME280;62539;51.190;6.808;2022-08-11T11:22:04;101799.16;;;27.93;42.45
62617;BME280;62539;51.190;6.808;2022-08-11T11:30:19;101788.06;;;28.01;42.52
62617;BME280;62539;51.190;6.808;2022-08-11T11:35:51;101788.47;;;28.09;42.32
62617;BME280;62539;51.190;6.808;2022-08-11T11:38:28;101783.81;;;28.13;41.88
62617;BME280;62539;51.190;6.808;2022-08-11T11:40:54;101768.50;;;28.16;42.08
62617;BME280;62539;51.190;6.808;2022-08-11T11:43:39;101766.41;;;28.22;41.88
62617;BME280;62539;51.190;6.808;2022-08-11T11:46:06;101764.31;;;28.27;41.80
62617;BME280;62539;51.190;6.808;2022-08-11T11:48:34;101764.78;;;28.34;41.73
62617;BME280;62539;51.190;6.808;2022-08-11T11:51:01;101770.81;;;28.37;41.58
62617;BME280;62539;51.190;6.808;2022-08-11T11:53:28;101761.75;;;28.40;41.58
62617;BME280;62539;51.190;6.808;2022-08-11T11:55:54;101755.38;;;28.42;41.58
62617;BME280;62539;51.190;6.808;2022-08-11T11:58:22;101759.78;;;28.43;41.61
62617;BME280;62539;51.190;6.808;2022-08-11T12:01:06;101757.47;;;28.37;41.62
62617;BME280;62539;51.190;6.808;2022-08-11T12:03:42;101758.13;;;28.26;41.93
62617;BME280;62539;51.190;6.808;2022-08-11T12:06:11;101749.81;;;28.16;42.10
62617;BME280;62539;51.190;6.808;2022-08-11T12:08:41;101741.41;;;28.08;41.96
62617;BME280;62539;51.190;6.808;2022-08-11T12:11:11;101741.75;;;28.02;41.34
62617;BME280;62539;51.190;6.808;2022-08-11T12:13:58;101740.31;;;27.96;41.61
62617;BME280;62539;51.190;6.808;2022-08-11T12:16:27;101744.09;;;27.92;41.52
62617;BME280;62539;51.190;6.808;2022-08-11T12:18:57;101734.50;;;27.90;41.76
62617;BME280;62539;51.190;6.808;2022-08-11T12:21:26;101745.34;;;27.86;42.07
62617;BME280;62539;51.190;6.808;2022-08-11T12:23:55;101733.81;;;27.86;42.15
62617;BME280;62539;51.190;6.808;2022-08-11T12:26:43;101731.72;;;27.91;42.38
62617;BME280;62539;51.190;6.808;2022-08-11T12:29:13;101728.78;;;27.96;42.43
62617;BME280;62539;51.190;6.808;2022-08-11T12:31:44;101723.09;;;28.02;42.78
62617;BME280;62539;51.190;6.808;2022-08-11T12:34:15;101713.00;;;28.07;43.31
62617;BME280;62539;51.190;6.808;2022-08-11T12:36:57;101716.44;;;28.09;43.96
62617;BME280;62539;51.190;6.808;2022-08-11T12:39:30;101712.56;;;28.15;43.91
62617;BME280;62539;51.190;6.808;2022-08-11T12:42:19;101703.41;;;28.19;44.02
62617;BME280;62539;51.190;6.808;2022-08-11T12:45:11;101703.81;;;28.27;43.95
62617;BME280;62539;51.190;6.808;2022-08-11T12:48:04;101707.91;;;28.33;44.08
62617;BME280;62539;51.190;6.808;2022-08-11T12:50:57;101704.00;;;28.39;44.36
62617;BME280;62539;51.190;6.808;2022-08-11T12:54:07;101698.66;;;28.39;43.83
62617;BME280;62539;51.190;6.808;2022-08-11T12:56:41;101700.88;;;28.32;43.08
62617;BME280;62539;51.190;6.808;2022-08-11T12:59:30;101689.03;;;28.22;43.12
62617;BME280;62539;51.190;6.808;2022-08-11T13:02:16;101682.25;;;28.16;43.26
62617;BME280;62539;51.190;6.808;2022-08-11T13:05:05;101688.66;;;28.13;43.16
62617;BME280;62539;51.190;6.808;2022-08-11T13:07:32;101681.56;;;28.12;43.84
62617;BME280;62539;51.190;6.808;2022-08-11T13:10:01;101676.44;;;28.09;43.39
62617;BME280;62539;51.190;6.808;2022-08-11T13:12:30;101677.38;;;28.08;43.14
62617;BME280;62539;51.190;6.808;2022-08-11T13:15:15;101670.53;;;28.04;43.57
62617;BME280;62539;51.190;6.808;2022-08-11T13:17:44;101672.44;;;28.02;42.83
62617;BME280;62539;51.190;6.808;2022-08-11T13:20:12;101666.31;;;28.00;42.58
62617;BME280;62539;51.190;6.808;2022-08-11T13:22:41;101666.31;;;28.00;43.19
62617;BME280;62539;51.190;6.808;2022-08-11T13:25:10;101662.53;;;28.04;43.68
62617;BME280;62539;51.190;6.808;2022-08-11T13:27:41;101662.16;;;28.10;43.52
62617;BME280;62539;51.190;6.808;2022-08-11T13:30:08;101658.44;;;28.13;44.24
62617;BME280;62539;51.190;6.808;2022-08-11T13:32:53;101657.22;;;28.19;44.63
62617;BME280;62539;51.190;6.808;2022-08-11T13:35:21;101656.94;;;28.23;44.64
62617;BME280;62539;51.190;6.808;2022-08-11T13:37:47;101651.31;;;28.28;43.83
62617;BME280;62539;51.190;6.808;2022-08-11T13:40:16;101653.41;;;28.23;43.32
62617;BME280;62539;51.190;6.808;2022-08-11T13:42:45;101651.88;;;28.19;43.37
62617;BME280;62539;51.190;6.808;2022-08-11T13:45:12;101648.47;;;28.16;43.64
62617;BME280;62539;51.190;6.808;2022-08-11T13:47:39;101647.69;;;28.14;43.84
62617;BME280;62539;51.190;6.808;2022-08-11T13:50:06;101645.97;;;28.13;43.88
62617;BME280;62539;51.190;6.808;2022-08-11T13:52:34;101640.66;;;28.13;44.12
62617;BME280;62539;51.190;6.808;2022-08-11T13:55:04;101642.53;;;28.11;43.86
62617;BME280;62539;51.190;6.808;2022-08-11T13:57:33;101635.47;;;28.10;44.15
62617;BME280;62539;51.190;6.808;2022-08-11T14:00:00;101638.13;;;28.10;44.39
62617;BME280;62539;51.190;6.808;2022-08-11T14:02:40;101640.81;;;28.10;44.42
62617;BME280;62539;51.190;6.808;2022-08-11T14:05:11;101632.03;;;28.08;44.27
62617;BME280;62539;51.190;6.808;2022-08-11T14:08:01;101629.44;;;28.07;44.42
62617;BME280;62539;51.190;6.808;2022-08-11T14:10:33;101631.16;;;28.08;44.37
62617;BME280;62539;51.190;6.808;2022-08-11T14:13:11;101629.25;;;28.10;45.53
62617;BME280;62539;51.190;6.808;2022-08-11T14:16:04;101625.41;;;28.15;45.50
62617;BME280;62539;51.190;6.808;2022-08-11T14:18:34;101625.88;;;28.22;45.60
62617;BME280;62539;51.190;6.808;2022-08-11T14:21:04;101619.38;;;28.26;45.93
62617;BME280;62539;51.190;6.808;2022-08-11T14:23:53;101617.38;;;28.30;45.76
62617;BME280;62539;51.190;6.808;2022-08-11T14:26:24;101611.75;;;28.35;45.86
62617;BME280;62539;51.190;6.808;2022-08-11T14:28:54;101608.03;;;28.37;46.20
62617;BME280;62539;51.190;6.808;2022-08-11T14:31:33;101606.91;;;28.41;45.31
62617;BME280;62539;51.190;6.808;2022-08-11T14:34:04;101609.75;;;28.38;44.73
62617;BME280;62539;51.190;6.808;2022-08-11T14:36:39;101615.47;;;28.32;43.82
62617;BME280;62539;51.190;6.808;2022-08-11T14:39:10;101606.91;;;28.27;43.43
62617;BME280;62539;51.190;6.808;2022-08-11T14:41:39;101600.81;;;28.25;43.38
62617;BME280;62539;51.190;6.808;2022-08-11T14:44:26;101577.97;;;28.21;43.69
62617;BME280;62539;51.190;6.808;2022-08-11T14:47:12;101593.97;;;28.21;44.26
62617;BME280;62539;51.190;6.808;2022-08-11T14:49:41;101593.19;;;28.19;44.41
62617;BME280;62539;51.190;6.808;2022-08-11T14:52:13;101588.81;;;28.17;44.72
62617;BME280;62539;51.190;6.808;2022-08-11T14:54:42;101591.56;;;28.16;44.60
62617;BME280;62539;51.190;6.808;2022-08-11T14:57:31;101595.19;;;28.15;44.93
62617;BME280;62539;51.190;6.808;2022-08-11T15:00:00;101587.53;;;28.09;45.23
62617;BME280;62539;51.190;6.808;2022-08-11T15:02:29;101598.31;;;28.07;45.04
62617;BME280;62539;51.190;6.808;2022-08-11T15:05:14;101594.97;;;28.03;45.31
62617;BME280;62539;51.190;6.808;2022-08-11T15:07:40;101585.25;;;28.02;45.14
62617;BME280;62539;51.190;6.808;2022-08-11T15:10:08;101582.69;;;28.01;45.25
62617;BME280;62539;51.190;6.808;2022-08-11T15:12:35;101584.41;;;28.02;44.96
62617;BME280;62539;51.190;6.808;2022-08-11T15:15:04;101572.13;;;27.99;45.17
62617;BME280;62539;51.190;6.808;2022-08-11T15:17:52;101580.13;;;27.99;45.08
62617;BME280;62539;51.190;6.808;2022-08-11T15:20:20;101571.34;;;27.97;44.94
62617;BME280;62539;51.190;6.808;2022-08-11T15:23:06;101569.63;;;27.96;45.13
62617;BME280;62539;51.190;6.808;2022-08-11T15:25:55;101566.13;;;27.96;45.08
62617;BME280;62539;51.190;6.808;2022-08-11T15:28:24;101565.25;;;27.95;45.07
62617;BME280;62539;51.190;6.808;2022-08-11T15:31:13;101560.88;;;27.94;45.28
62617;BME280;62539;51.190;6.808;2022-08-11T15:34:02;101563.66;;;27.93;44.95
62617;BME280;62539;51.190;6.808;2022-08-11T15:36:54;101556.59;;;27.92;44.90
62617;BME280;62539;51.190;6.808;2022-08-11T15:39:50;101550.41;;;27.91;45.31
62617;BME280;62539;51.190;6.808;2022-08-11T15:42:56;101548.88;;;27.87;45.21
62617;BME280;62539;51.190;6.808;2022-08-11T15:45:45;101536.41;;;27.87;45.08
62617;BME280;62539;51.190;6.808;2022-08-11T15:48:33;101539.16;;;27.86;44.94
62617;BME280;62539;51.190;6.808;2022-08-11T15:51:09;101537.19;;;27.90;44.42
62617;BME280;62539;51.190;6.808;2022-08-11T15:53:47;101542.53;;;27.90;43.57
62617;BME280;62539;51.190;6.808;2022-08-11T15:56:22;101540.63;;;27.92;43.18
62617;BME280;62539;51.190;6.808;2022-08-11T15:58:52;101538.91;;;27.91;43.69
62617;BME280;62539;51.190;6.808;2022-08-11T16:01:41;101539.84;;;27.90;43.63
62617;BME280;62539;51.190;6.808;2022-08-11T16:04:29;101537.19;;;27.90;43.92
62617;BME280;62539;51.190;6.808;2022-08-11T16:07:04;101535.47;;;27.88;43.73
62617;BME280;62539;51.190;6.808;2022-08-11T16:09:48;101526.53;;;27.90;43.77
62617;BME280;62539;51.190;6.808;2022-08-11T16:12:31;101535.47;;;27.88;44.34
62617;BME280;62539;51.190;6.808;2022-08-11T16:15:05;101530.13;;;27.88;44.92
62617;BME280;62539;51.190;6.808;2022-08-11T16:17:55;101522.97;;;27.89;44.93
62617;BME280;62539;51.190;6.808;2022-08-11T16:20:26;101517.56;;;27.91;45.04
62617;BME280;62539;51.190;6.808;2022-08-11T16:22:56;101524.63;;;27.92;44.90
62617;BME280;62539;51.190;6.808;2022-08-11T16:25:26;101526.31;;;27.93;45.03
62617;BME280;62539;51.190;6.808;2022-08-11T16:28:01;101521.38;;;27.86;45.63
62617;BME280;62539;51.190;6.808;2022-08-11T16:30:34;101524.41;;;27.95;45.31
62617;BME280;62539;51.190;6.808;2022-08-11T16:33:03;101526.13;;;27.96;45.82
62617;BME280;62539;51.190;6.808;2022-08-11T16:35:35;101518.91;;;27.98;45.22
62617;BME280;62539;51.190;6.808;2022-08-11T16:38:23;101523.53;;;27.94;44.35